• Join FlightAware (Why Join?)
  • Login
  • US Flag 
11:59PM EDT


 

Airport Tracker/Info


-or-


 

Live Flight TrackerFlight Track Log ✈ N5253X ✈ 24-May-2013 ✈ KTOA - 18AZ

Flight Track Log - Related Links

Times and Time Zones

All times are in EDT time to prevent confusion due to time zone crossing. See the N5253X flight status page for this flight to view local times or setup timezone preferences in your user account.

Time Position Orientation Groundspeed Altitude Reporting Facility
EDT Latitude Longitude Course Direction KTS MPH feet Rate Location/Type
02:19PM 33.8000 -118.3167 140° Southeast 70 81 1,200  Level Southern California TRACON
02:20PM 33.7833 -118.3000 140° Southeast 76 87 1,900 660 Climbing Southern California TRACON
02:21PM 33.7761 -118.2806 114° Southeast 75 86 2,700 780 Climbing Los Angeles Center
02:22PM 33.7789 -118.2500 84° East 77 89 3,600 780 Climbing Los Angeles Center
02:23PM 33.7800 -118.2269 87° East 73 84 4,400 720 Climbing Los Angeles Center
02:24PM 33.7872 -118.2014 71° East 75 86 5,100 540 Climbing Los Angeles Center
02:25PM 33.7867 -118.1742 91° East 81 93 5,600 240 Climbing Los Angeles Center
02:26PM 33.7828 -118.1372 97° East 104 120 5,600 300 Level Los Angeles Center
02:27PM 33.7833 -118.1000 89° East 102 117 6,200 660 Climbing Southern California TRACON
02:28PM 33.8000 -118.0667 59° Northeast 90 104 6,800 600 Climbing Southern California TRACON
02:29PM 33.8000 -118.0500 90° East 93 107 7,400 420 Climbing Southern California TRACON
02:30PM 33.8167 -118.0167 59° Northeast 112 129 7,700 60 Climbing Southern California TRACON
02:31PM 33.8333 -117.9667 68° East 140 161 7,600 -60 Descending Southern California TRACON
02:32PM 33.8333 -117.9333 90° East 132 152 7,600  Level Southern California TRACON
02:33PM 33.8500 -117.8833 68° East 133 153 7,600  Level Southern California TRACON
02:34PM 33.8500 -117.8333 90° East 134 154 7,600  Level Southern California TRACON
02:35PM 33.8500 -117.8000 90° East 136 157 7,600  Level Southern California TRACON
02:36PM 33.8667 -117.7500 68° East 133 153 7,600  Level Southern California TRACON
02:37PM 33.8833 -117.7000 68° East 135 155 7,600  Level Southern California TRACON
02:38PM 33.8833 -117.6667 90° East 134 154 7,700  Climbing Southern California TRACON
02:39PM 33.9000 -117.6167 68° East 135 155 7,700 -60 Level Southern California TRACON
02:40PM 33.9000 -117.5667 90° East 134 154 7,600  Descending Southern California TRACON
02:41PM 33.9000 -117.5333 90° East 134 154 7,700  Climbing Southern California TRACON
02:42PM 33.9000 -117.4833 90° East 133 153 7,600 -60 Descending Southern California TRACON
02:43PM 33.9000 -117.4500 90° East 132 152 7,600  Level Southern California TRACON
02:44PM 33.9000 -117.4000 90° East 130 150 7,600  Level Southern California TRACON
02:45PM 33.9000 -117.3500 90° East 132 152 7,600  Level Southern California TRACON
02:46PM 33.8833 -117.3167 121° Southeast 130 150 7,600  Level Southern California TRACON
02:47PM 33.8833 -117.2667 90° East 131 151 7,600  Level Southern California TRACON
02:48PM 33.8833 -117.2167 90° East 133 153 7,600  Level Southern California TRACON
02:49PM 33.9000 -117.1833 59° Northeast 132 152 7,600  Level Southern California TRACON
02:50PM 33.9000 -117.1333 90° East 130 150 7,600  Level Southern California TRACON
02:51PM 33.9167 -117.1000 59° Northeast 134 154 7,700  Climbing Southern California TRACON
02:52PM 33.9167 -117.0500 90° East 133 153 7,600 -60 Descending Southern California TRACON
02:53PM 33.9167 -117.0000 90° East 132 152 7,600  Level Southern California TRACON
02:54PM 33.9167 -116.9667 90° East 130 150 7,600  Level Southern California TRACON
02:55PM 33.9333 -116.9167 68° East 132 152 7,600  Level Southern California TRACON
02:56PM 33.9283 -116.8733 98° East 130 150 7,700  Climbing Los Angeles Center
02:57PM 33.9306 -116.8217 87° East 130 150 7,700  Level Los Angeles Center
02:58PM 33.9300 -116.7769 91° East 132 152 7,700  Level Los Angeles Center
02:59PM 33.9281 -116.7339 93° East 131 151 7,700  Level Los Angeles Center
03:00PM 33.9228 -116.6903 98° East 131 151 7,700  Level Los Angeles Center
03:01PM 33.9111 -116.6481 108° East 130 150 7,700  Level Los Angeles Center
03:02PM 33.8919 -116.6019 117° Southeast 132 152 7,700  Level Los Angeles Center
03:03PM 33.8697 -116.5611 123° Southeast 140 161 7,700 -180 Level Los Angeles Center
03:04PM 33.8667 -116.5333 98° East 119 137 7,500 -180 Descending Southern California TRACON
03:05PM 33.8500 -116.5000 121° Southeast 117 135 7,500  Level Southern California TRACON
03:06PM 33.8333 -116.4667 121° Southeast 120 138 7,500  Level Southern California TRACON
03:07PM 33.8167 -116.4167 112° Southeast 127 146 7,500  Level Southern California TRACON
03:08PM 33.8000 -116.3833 121° Southeast 129 148 7,500  Level Southern California TRACON
03:09PM 33.7947 -116.3444 99° East 127 146 7,500  Level Los Angeles Center
03:10PM 33.7808 -116.3056 113° Southeast 126 145 7,500  Level Los Angeles Center
03:11PM 33.7669 -116.2667 113° Southeast 126 145 7,500  Level Los Angeles Center
03:12PM 33.7508 -116.2253 115° Southeast 130 150 7,500  Level Los Angeles Center
03:13PM 33.7367 -116.1828 112° Southeast 133 153 7,500  Level Los Angeles Center
03:14PM 33.7253 -116.1400 108° East 134 154 7,500  Level Los Angeles Center
03:15PM 33.7133 -116.0997 110° East 132 152 7,500  Level Los Angeles Center
03:16PM 33.6994 -116.0500 109° East 131 151 7,500  Level Los Angeles Center
03:17PM 33.6867 -116.0083 110° East 131 151 7,500  Level Los Angeles Center
03:18PM 33.6825 -115.9639 96° East 134 154 7,500  Level Los Angeles Center
03:19PM 33.6803 -115.9189 93° East 135 155 7,500  Level Los Angeles Center
03:20PM 33.6772 -115.8750 95° East 134 154 7,500  Level Los Angeles Center
03:21PM 33.6736 -115.8219 95° East 133 153 7,500  Level Los Angeles Center
03:22PM 33.6725 -115.7783 92° East 133 153 7,500  Level Los Angeles Center
03:23PM 33.6739 -115.7322 88° East 135 155 7,500  Level Los Angeles Center
03:24PM 33.6772 -115.6869 85° East 137 158 7,500  Level Los Angeles Center
03:25PM 33.6836 -115.6417 80° East 137 158 7,500  Level Los Angeles Center
03:26PM 33.6908 -115.5969 79° East 138 159 7,500  Level Los Angeles Center
03:27PM 33.6978 -115.5433 81° East 137 158 7,500  Level Los Angeles Center
03:28PM 33.7044 -115.4989 80° East 136 157 7,500  Level Los Angeles Center
03:29PM 33.7128 -115.4542 77° East 137 158 7,500  Level Los Angeles Center
03:30PM 33.7139 -115.4108 88° East 133 153 7,500  Level Los Angeles Center
03:31PM 33.7075 -115.3669 100° East 131 151 7,500  Level Los Angeles Center
03:32PM 33.6972 -115.3158 104° East 130 150 7,600  Climbing Los Angeles Center
03:33PM 33.6878 -115.2733 105° East 130 150 7,500 -60 Descending Los Angeles Center
03:34PM 33.6778 -115.2314 106° East 130 150 7,500  Level Los Angeles Center
03:35PM 33.6697 -115.1922 104° East 128 147 7,500  Level Los Angeles Center
03:37PM 33.6611 -115.1522 104° East 125 144 7,500  Level Los Angeles Center
03:38PM 33.6511 -115.1094 106° East 127 146 7,600  Climbing Los Angeles Center
03:39PM 33.6394 -115.0575 105° East 131 151 7,500 -60 Descending Los Angeles Center
03:40PM 33.6336 -115.0144 99° East 132 152 7,500  Level Los Angeles Center
03:41PM 33.6342 -114.9697 89° East 133 153 7,600  Climbing Los Angeles Center
03:42PM 33.6328 -114.9250 92° East 134 154 7,600 -60 Level Los Angeles Center
03:43PM 33.6325 -114.8792 90° East 136 157 7,500  Descending Los Angeles Center
03:44PM 33.6350 -114.8339 86° East 137 158 7,600  Climbing Los Angeles Center
03:45PM 33.6456 -114.7811 76° East 136 157 7,500 -60 Descending Los Angeles Center
03:46PM 33.6497 -114.7358 84° East 137 158 7,500  Level Los Angeles Center
03:47PM 33.6522 -114.6917 86° East 134 154 7,600  Climbing Los Angeles Center
03:48PM 33.6614 -114.6481 76° East 133 153 7,600  Level Los Angeles Center
03:49PM 33.6678 -114.6031 80° East 136 157 7,600  Level Los Angeles Center
03:50PM 33.6742 -114.5514 82° East 132 152 7,600 -60 Level Los Angeles Center
03:51PM 33.6778 -114.5072 84° East 132 152 7,500  Descending Los Angeles Center
03:52PM 33.6819 -114.4644 83° East 131 151 7,600  Climbing Los Angeles Center
03:53PM 33.6869 -114.4203 82° East 133 153 7,600  Level Los Angeles Center
03:54PM 33.6911 -114.3764 83° East 132 152 7,600 -60 Level Los Angeles Center
03:55PM 33.6944 -114.3367 84° East 127 146 7,500 -60 Descending Albuquerque Center
03:56PM 33.6994 -114.3019 80° East 118 136 7,500  Level Albuquerque Center
03:57PM 33.7011 -114.2669 87° East 112 129 7,600  Climbing Albuquerque Center
03:58PM 33.7011 -114.2286 90° East 112 129 7,500  Descending Albuquerque Center
03:59PM 33.6994 -114.1800 92° East 117 135 7,600  Climbing Albuquerque Center
04:00PM 33.6978 -114.1392 93° East 120 138 7,500 -60 Descending Albuquerque Center
04:01PM 33.7031 -114.1011 81° East 119 137 7,500  Level Albuquerque Center
04:02PM 33.7094 -114.0653 78° East 115 132 7,600  Climbing Albuquerque Center
04:03PM 33.7169 -114.0264 77° East 115 132 7,600 -60 Level Albuquerque Center
04:04PM 33.7214 -113.9875 82° East 117 135 7,500 -60 Descending Albuquerque Center
04:06PM 33.7328 -113.9433 73° East 123 142 7,500  Level Albuquerque Center
04:07PM 33.7422 -113.9000 75° East 120 138 7,500  Level Albuquerque Center
04:08PM 33.7508 -113.8642 74° East 117 135 7,500  Level Albuquerque Center
04:09PM 33.7633 -113.8197 71° East 124 143 7,500  Level Albuquerque Center
04:10PM 33.7750 -113.7803 70° East 124 143 7,500  Level Albuquerque Center
04:11PM 33.7897 -113.7392 67° East 131 151 7,500  Level Albuquerque Center
04:12PM 33.8042 -113.6986 67° East 132 152 7,500  Level Albuquerque Center
04:13PM 33.8197 -113.6578 65° Northeast 134 154 7,500  Level Albuquerque Center
04:14PM 33.8339 -113.6114 70° East 126 145 7,500 -60 Level Albuquerque Center
04:15PM 33.8500 -113.5769 61° Northeast 121 139 7,400  Descending Albuquerque Center
04:16PM 33.8658 -113.5400 63° Northeast 123 142 7,500  Climbing Albuquerque Center
04:17PM 33.8800 -113.5047 64° Northeast 121 139 7,500  Level Albuquerque Center
04:18PM 33.8961 -113.4703 61° Northeast 117 135 7,500  Level Albuquerque Center
04:19PM 33.9089 -113.4336 67° East 119 137 7,500  Level Albuquerque Center
04:20PM 33.9233 -113.3889 69° East 120 138 7,500  Level Albuquerque Center
04:21PM 33.9328 -113.3519 73° East 116 133 7,600  Climbing Albuquerque Center
04:22PM 33.9381 -113.3147 80° East 114 131 7,500  Descending Albuquerque Center
04:23PM 33.9408 -113.2758 85° East 114 131 7,600 -60 Climbing Albuquerque Center
04:24PM 33.9392 -113.2342 93° East 123 142 7,400 -360 Descending Albuquerque Center
04:25PM 33.9356 -113.1914 96° East 128 147 6,900 -540 Descending Albuquerque Center
04:26PM 33.9342 -113.1478 92° East 113 130 6,400 -540 Descending Albuquerque Center
04:27PM 33.9311 -113.1131 96° East 106 122 5,900 -420 Descending Albuquerque Center
04:28PM 33.9247 -113.0811 104° East 100 115 5,600 -180 Descending Albuquerque Center
04:29PM 33.9169 -113.0483 106° East 100 115 5,600 -60 Level Albuquerque Center
04:30PM 33.9264 -113.0136 72° East 108 124 5,500 -60 Descending Albuquerque Center
04:31PM 33.9356 -112.9761 74° East 115 132 5,500  Level Albuquerque Center
04:32PM 33.9436 -112.9317 78° East 114 131 5,600 -60 Climbing Albuquerque Center
04:33PM 33.9494 -112.8936 80° East 116 133 5,400  Descending Albuquerque Center
04:34PM 33.9567 -112.8594 76° East 111 128 5,600  Climbing Albuquerque Center
04:35PM 33.9611 -112.8250 81° East 107 123 5,500  Descending Albuquerque Center
04:36PM 33.9592 -112.7894 94° East 101 116 5,600  Climbing Albuquerque Center
04:37PM 33.9550 -112.7525 98° East 107 123 5,500 -60 Descending Albuquerque Center
04:38PM 33.9492 -112.7181 102° East 104 120 5,500  Level Albuquerque Center
04:40PM 33.9464 -112.6767 95° East 103 119 5,500  Level Albuquerque Center
04:41PM 33.9444 -112.6425 94° East 105 121 5,500  Level Albuquerque Center
04:41PM 33.9414 -112.6125 97° East 105 121 5,600  Climbing Albuquerque Center
04:42PM 33.9394 -112.5772 94° East 106 122 5,600  Level Albuquerque Center
04:43PM 33.9333 -112.5431 102° East 107 123 5,600 -120 Level Albuquerque Center
04:44PM 33.9311 -112.5367 113° Southeast 108 124 5,500  Descending Albuquerque Center
04:45PM 33.9264 -112.5036 100° East 107 123 5,600  Climbing Albuquerque Center
04:46PM 33.9203 -112.4694 102° East 110 127 5,600 -120 Level Albuquerque Center
04:46PM 33.9181 -112.4578 103° East 111 128 5,500 -120 Descending Albuquerque Center
04:47PM 33.9125 -112.4219 101° East 109 125 5,500  Level Albuquerque Center
04:48PM 33.9064 -112.3853 101° East 112 129 5,500  Level Albuquerque Center
04:49PM 33.9000 -112.3511 103° East 106 122 5,500  Level Albuquerque Center
04:50PM 33.8950 -112.3142 99° East 109 125 5,500  Level Albuquerque Center
04:51PM 33.8922 -112.2778 95° East 109 125 5,600  Climbing Albuquerque Center
04:52PM 33.8864 -112.2350 99° East 108 124 5,500 -60 Descending Albuquerque Center
04:53PM 33.8797 -112.2008 103° East 106 122 5,500  Level Albuquerque Center
04:54PM 33.8703 -112.1667 108° East 106 122 5,500 -300 Level Albuquerque Center
04:55PM 33.8586 -112.1336 113° Southeast 107 123 4,900 -480 Descending Albuquerque Center
04:56PM 33.8469 -112.1053 116° Southeast 97 112 4,600 -300 Descending Albuquerque Center
04:57PM 33.8353 -112.0764 116° Southeast 98 113 4,400 -240 Descending Albuquerque Center